Zhangwu, China
Current Conditions -  °F | °C
As of 6:00 PM on Saturday 22 Nov 2014 (Local Time) from ZYTX Reporting Station
Clear Clear  
Wind Chill: 32°   Ceiling: Unl
Heat Index: 32°   Visibility: 6mi
Dew Point:   Wind: 2mph
Humidity: 35%   Direction: NA
Pressure: 30.33"   Gusts: NA
Location:  42.42°N, 122.53°E
Report Text: ZYTX 221000Z VRB01MPS CAVOK M00/M14 Q1027 NOSIG
Loading
Personal Weather Stations






























Interactive Weather Map New forecast layout! Learn more

10-Day Weather Forecast

Advertisements
Track Severe Weather on mobile